This is the latest recevied weather packets stored in our database for station/object LRSB. If no packets are shown the sender has not sent any weather packets the latest 1 day(s).
| Time | Temp. | Humidity | Pressure | Rain* | Wind** | Luminosity | Snow |
|---|---|---|---|---|---|---|---|
| 1777948391 | 7.78° C | 76% | 1017 hPa | - | 1.34 m/s, 70° | - | - |
| 1777947491 | 8.89° C | 76% | 1017 hPa | - | 1.34 m/s, 60° | - | - |
| 1777946591 | 8.89° C | 76% | 1017 hPa | - | 1.34 m/s, 60° | - | - |
| 1777945691 | 10° C | 71% | 1017 hPa | - | 1.34 m/s, 60° | - | - |
| 1777944791 | 10° C | 71% | 1017 hPa | - | 1.34 m/s, 60° | - | - |
| 1777943891 | 10° C | 71% | 1017 hPa | - | 1.34 m/s, 50° | - | - |
| 1777942992 | 10° C | 71% | 1017 hPa | - | 1.34 m/s, 50° | - | - |
| 1777940291 | 11.11° C | 67% | 1017 hPa | - | 2.24 m/s, 110° | - | - |
| 1777939391 | 11.11° C | 67% | 1017 hPa | - | 2.24 m/s, 110° | - | - |
| 1777938491 | 11.11° C | 67% | 1017 hPa | - | 1.34 m/s, 120° | - | - |
| 1777937591 | 11.11° C | 67% | 1017 hPa | - | 1.34 m/s, 120° | - | - |
| 1777936691 | 11.11° C | 62% | 1017 hPa | - | 2.24 m/s, 250° | - | - |
| 1777935791 | 11.11° C | 62% | 1017 hPa | - | 2.24 m/s, 250° | - | - |
| 1777934891 | 11.11° C | 67% | 1017 hPa | - | 1.34 m/s, 180° | - | - |
| 1777933991 | 11.11° C | 67% | 1017 hPa | - | 1.34 m/s, 180° | - | - |
| 1777933114 | 12.78° C | 59% | 1017 hPa | - | 4.92 m/s, 260° | - | - |
| 1777932191 | 12.78° C | 59% | 1017 hPa | - | 4.92 m/s, 260° | - | - |
| 1777931291 | 11.11° C | 67% | 1017 hPa | - | 2.24 m/s, 250° | - | - |
| 1777930407 | 11.11° C | 67% | 1017 hPa | - | 2.24 m/s, 250° | - | - |
| 1777929491 | 11.11° C | 67% | 1017 hPa | - | 3.13 m/s, 250° | - | - |
| 1777928591 | 11.11° C | 67% | 1017 hPa | - | 3.13 m/s, 250° | - | - |
* Rain since midnight (hover to see other rain measurements)
** Current wind speed in m/s (hover to see current wind gust speed)